createdAt,value
2022-10-17T00:01:10.951Z,9.79
2022-10-17T00:03:40.324Z,9.77
2022-10-17T00:06:14.196Z,9.79
2022-10-17T00:08:45.408Z,9.80
2022-10-17T00:11:21.999Z,9.80
2022-10-17T00:13:55.324Z,9.74
2022-10-17T00:16:39.543Z,9.61
2022-10-17T00:19:07.477Z,9.56
2022-10-17T00:21:35.189Z,9.54
2022-10-17T00:24:02.278Z,9.62
2022-10-17T00:26:32.521Z,9.70
2022-10-17T00:29:00.905Z,9.80
2022-10-17T00:31:30.767Z,9.77
2022-10-17T00:33:57.459Z,9.79
2022-10-17T00:36:29.781Z,9.83
2022-10-17T00:39:01.955Z,9.80
2022-10-17T00:41:34.500Z,9.83
2022-10-17T00:44:30.296Z,9.85
2022-10-17T00:47:04.092Z,9.82
2022-10-17T00:49:41.753Z,9.82
2022-10-17T00:52:33.573Z,9.89
2022-10-17T00:55:28.886Z,9.96
2022-10-17T00:58:11.377Z,10.03
2022-10-17T01:00:42.512Z,10.04
2022-10-17T01:03:09.696Z,10.09
2022-10-17T01:05:39.024Z,10.15
2022-10-17T01:08:26.219Z,10.25
2022-10-17T01:11:32.972Z,10.33
2022-10-17T01:14:24.078Z,10.42
2022-10-17T01:17:31.030Z,10.56
2022-10-17T01:21:23.698Z,10.66
2022-10-17T01:24:27.010Z,10.75
2022-10-17T01:27:21.640Z,10.77
2022-10-17T01:31:04.946Z,10.81
2022-10-17T01:34:00.897Z,10.84
2022-10-17T01:37:02.995Z,10.83
2022-10-17T01:39:59.332Z,10.81
2022-10-17T01:43:37.759Z,10.82
2022-10-17T01:46:36.846Z,10.80
2022-10-17T01:49:09.967Z,10.82
2022-10-17T01:52:21.789Z,10.83
2022-10-17T01:55:31.117Z,10.87
2022-10-17T01:58:22.243Z,10.90
2022-10-17T02:00:53.398Z,10.88
2022-10-17T02:03:23.730Z,10.87
2022-10-17T02:05:55.042Z,10.89
2022-10-17T02:08:50.763Z,10.87
2022-10-17T02:11:29.611Z,10.89
2022-10-17T02:14:32.783Z,10.91
2022-10-17T02:17:34.133Z,10.92
2022-10-17T02:20:44.125Z,10.89
2022-10-17T02:23:50.792Z,10.93
2022-10-17T02:26:40.185Z,10.89
2022-10-17T02:29:20.941Z,10.91
2022-10-17T02:32:11.823Z,11.02
2022-10-17T02:34:49.234Z,11.10
2022-10-17T02:37:27.743Z,11.15
2022-10-17T02:40:02.075Z,11.21
2022-10-17T02:42:31.147Z,11.30
2022-10-17T02:45:02.922Z,11.33
2022-10-17T02:48:00.749Z,11.34
2022-10-17T02:51:04.148Z,11.40
2022-10-17T02:54:23.121Z,11.47
2022-10-17T02:57:13.440Z,11.52
2022-10-17T02:59:55.149Z,11.59
2022-10-17T03:02:22.139Z,11.64
2022-10-17T03:04:48.919Z,11.67
2022-10-17T03:07:15.822Z,11.70
2022-10-17T03:09:42.609Z,11.71
2022-10-17T03:12:09.660Z,11.74
2022-10-17T03:14:36.770Z,11.76
2022-10-17T03:17:03.598Z,11.76
2022-10-17T03:19:30.355Z,11.79
2022-10-17T03:21:57.189Z,11.91
2022-10-17T03:24:23.934Z,11.94
2022-10-17T03:26:50.653Z,11.95
2022-10-17T03:29:17.385Z,12.02
2022-10-17T03:31:44.171Z,12.04
2022-10-17T03:34:10.926Z,12.00
2022-10-17T03:36:38.971Z,11.98
2022-10-17T03:39:05.757Z,11.88
2022-10-17T03:41:32.514Z,11.94
2022-10-17T03:43:59.855Z,11.86
2022-10-17T03:46:29.670Z,11.78
2022-10-17T03:48:56.289Z,11.81
2022-10-17T03:51:35.101Z,11.79
2022-10-17T03:54:05.570Z,11.77
2022-10-17T03:56:32.320Z,11.77
2022-10-17T03:59:02.483Z,11.76
2022-10-17T04:01:29.253Z,11.74
2022-10-17T04:04:06.235Z,11.78
2022-10-17T04:06:37.845Z,11.77
2022-10-17T04:09:07.340Z,11.73
2022-10-17T04:11:34.643Z,11.72
2022-10-17T04:14:01.675Z,11.74
2022-10-17T04:16:29.421Z,11.76
2022-10-17T04:18:59.507Z,11.72
2022-10-17T04:21:29.350Z,11.70
2022-10-17T04:24:01.050Z,11.75
2022-10-17T04:26:28.266Z,11.74
2022-10-17T04:28:55.347Z,11.74
2022-10-17T04:31:25.265Z,11.78
2022-10-17T04:33:52.830Z,11.82
2022-10-17T04:36:34.822Z,11.86
2022-10-17T05:21:39.803Z,12.94
2022-10-17T05:35:01.459Z,12.86
2022-10-17T05:48:17.120Z,12.65
2022-10-17T13:36:36.732Z,16.67
2022-10-17T13:39:16.885Z,16.59
2022-10-17T13:41:47.555Z,16.53
2022-10-17T13:44:22.027Z,16.47
2022-10-17T13:46:50.609Z,16.42
2022-10-17T13:49:32.374Z,16.40
2022-10-17T13:52:03.622Z,16.37
2022-10-17T13:54:59.801Z,16.36
2022-10-17T13:57:34.067Z,16.39
2022-10-17T14:00:27.729Z,16.39
2022-10-17T14:02:54.809Z,16.40
2022-10-17T14:05:28.028Z,16.38
2022-10-17T14:08:21.754Z,16.39
2022-10-17T14:10:56.152Z,16.41
2022-10-17T14:13:35.051Z,16.40
2022-10-17T14:16:04.570Z,16.44
2022-10-17T14:18:38.052Z,16.47
2022-10-17T14:21:36.943Z,16.49
2022-10-17T14:24:24.183Z,16.50
2022-10-17T14:27:11.677Z,16.48
2022-10-17T14:29:55.146Z,16.46
2022-10-17T14:32:22.956Z,16.44
2022-10-17T14:35:05.505Z,16.45
2022-10-17T14:37:48.907Z,16.42
2022-10-17T14:40:25.913Z,16.41
2022-10-17T14:42:58.265Z,16.40
2022-10-17T14:45:39.638Z,16.41
2022-10-17T14:48:21.470Z,16.42
2022-10-17T14:51:19.468Z,16.39
2022-10-17T14:54:30.946Z,16.33
2022-10-17T14:56:57.633Z,16.31
2022-10-17T14:59:53.444Z,16.27
2022-10-17T15:02:25.871Z,16.24
2022-10-17T15:04:55.755Z,16.24
2022-10-17T15:07:24.374Z,16.27
2022-10-17T15:09:54.135Z,16.26
2022-10-17T15:12:26.409Z,16.22
2022-10-17T15:14:54.107Z,16.23
2022-10-17T15:17:34.434Z,16.23
2022-10-17T15:20:01.266Z,16.19
2022-10-17T15:22:31.275Z,16.19
2022-10-17T15:24:58.200Z,16.15
2022-10-17T15:27:27.246Z,16.16
2022-10-17T15:29:54.095Z,16.13
2022-10-17T15:32:25.532Z,16.17
2022-10-17T15:34:52.528Z,16.13
2022-10-17T15:37:25.288Z,16.11
2022-10-17T15:39:56.448Z,16.06
2022-10-17T15:42:33.639Z,16.09
2022-10-17T15:45:00.439Z,16.08
2022-10-17T15:47:36.859Z,16.11
2022-10-17T15:50:08.683Z,16.09
2022-10-17T15:52:35.995Z,16.08
2022-10-17T15:55:05.331Z,16.07
2022-10-17T15:57:40.601Z,16.07
2022-10-17T16:00:20.750Z,16.08
2022-10-17T16:02:49.303Z,16.06
2022-10-17T16:05:26.896Z,16.01
2022-10-17T16:07:54.202Z,15.99
2022-10-17T16:10:22.849Z,15.98
2022-10-17T16:12:50.611Z,15.99
2022-10-17T16:15:27.791Z,16.00
2022-10-17T16:18:00.394Z,15.97
2022-10-17T16:20:28.548Z,15.95
2022-10-17T16:23:00.821Z,15.94
2022-10-17T16:25:31.027Z,16.01
2022-10-17T16:28:01.028Z,15.92
2022-10-17T16:30:32.808Z,15.91
2022-10-17T16:32:59.867Z,15.88
2022-10-17T16:35:33.315Z,15.90
2022-10-17T16:38:05.540Z,15.88
2022-10-17T16:40:32.355Z,15.87
2022-10-17T16:42:58.947Z,15.85
2022-10-17T16:45:27.913Z,15.83
2022-10-17T16:47:55.678Z,15.84
2022-10-17T16:50:25.452Z,15.82
2022-10-17T16:52:52.227Z,15.82
2022-10-17T16:55:19.503Z,15.85
2022-10-17T16:57:49.706Z,15.78
2022-10-17T17:00:20.013Z,15.70
2022-10-17T17:02:49.868Z,15.65
2022-10-17T17:05:22.279Z,15.57
2022-10-17T17:07:55.921Z,15.48
2022-10-17T17:10:25.835Z,15.40
2022-10-17T17:12:59.544Z,15.37
2022-10-17T17:15:30.093Z,15.32
2022-10-17T17:17:57.947Z,15.26
2022-10-17T17:20:33.944Z,15.24
2022-10-17T17:23:06.112Z,15.23
2022-10-17T17:25:35.983Z,15.20
2022-10-17T17:28:03.972Z,15.19
2022-10-17T17:30:30.739Z,15.15
2022-10-17T17:32:57.504Z,15.10
2022-10-17T17:35:24.190Z,15.08
2022-10-17T17:37:51.039Z,15.07
2022-10-17T17:40:18.013Z,15.03
2022-10-17T17:42:50.601Z,15.03
2022-10-17T17:45:17.576Z,14.98
2022-10-17T17:47:44.286Z,14.95
2022-10-17T17:50:11.035Z,14.97
2022-10-17T17:52:40.086Z,14.91
2022-10-17T17:55:07.857Z,14.91
2022-10-17T17:57:34.603Z,14.88
2022-10-17T18:00:01.351Z,14.90
2022-10-17T18:02:28.287Z,14.84
2022-10-17T18:05:04.912Z,14.85
2022-10-17T18:07:31.694Z,14.81
2022-10-17T18:10:01.386Z,14.83
2022-10-17T18:12:29.537Z,14.78
2022-10-17T18:14:56.446Z,14.75
2022-10-17T18:17:23.281Z,14.73
2022-10-17T18:19:49.942Z,14.70
2022-10-17T18:22:16.907Z,14.64
2022-10-17T18:24:46.251Z,14.67
2022-10-17T18:35:21.226Z,14.62
2022-10-17T18:37:55.279Z,14.57
2022-10-17T18:54:06.672Z,14.51
2022-10-17T18:59:15.843Z,14.50
2022-10-17T19:04:26.932Z,14.44
2022-10-17T19:17:40.128Z,14.33
2022-10-17T19:40:51.054Z,14.14
2022-10-17T19:43:32.321Z,14.09
2022-10-17T19:57:36.347Z,13.94
2022-10-17T20:00:05.013Z,13.92
2022-10-17T20:02:32.403Z,13.94
2022-10-17T20:05:17.668Z,13.93
2022-10-17T20:13:34.718Z,13.84
2022-10-17T20:21:40.682Z,13.87
2022-10-17T20:29:36.520Z,13.85
2022-10-17T20:37:26.377Z,13.72
2022-10-17T20:45:19.895Z,13.64
2022-10-17T20:50:42.962Z,13.63
2022-10-17T20:53:36.035Z,13.64
2022-10-17T20:56:11.543Z,13.63
2022-10-17T20:58:38.372Z,13.58
2022-10-17T21:01:10.697Z,13.60
2022-10-17T21:03:42.369Z,13.58
2022-10-17T21:06:13.240Z,13.58
2022-10-17T21:08:40.249Z,13.65
2022-10-17T21:11:18.748Z,13.69
2022-10-17T21:14:03.616Z,13.71
2022-10-17T21:16:37.839Z,13.73
2022-10-17T21:19:06.064Z,13.77
2022-10-17T21:21:37.940Z,13.76
2022-10-17T21:24:13.549Z,13.79
2022-10-17T21:26:47.887Z,13.77
2022-10-17T21:29:17.814Z,13.76
2022-10-17T21:31:47.893Z,13.72
2022-10-17T21:34:23.938Z,13.72
2022-10-17T21:36:53.938Z,13.62
2022-10-17T21:39:22.951Z,13.60
2022-10-17T21:41:49.694Z,13.57
2022-10-17T21:44:27.248Z,13.57
2022-10-17T21:46:57.685Z,13.54
2022-10-17T21:49:25.658Z,13.47
2022-10-17T21:51:53.562Z,13.50
2022-10-17T21:54:25.674Z,13.47
2022-10-17T21:56:53.078Z,13.37
2022-10-17T21:59:19.830Z,13.40
2022-10-17T22:01:46.988Z,13.43
2022-10-17T22:04:19.542Z,13.45
2022-10-17T22:06:51.145Z,13.44
2022-10-17T22:09:25.897Z,13.57
2022-10-17T22:11:58.662Z,13.53
2022-10-17T22:14:27.660Z,13.60
2022-10-17T22:16:55.478Z,13.54
2022-10-17T22:19:26.526Z,13.52
2022-10-17T22:21:57.831Z,13.51
2022-10-17T22:24:24.622Z,13.45
2022-10-17T22:26:51.842Z,13.43
2022-10-17T22:29:18.654Z,13.38
2022-10-17T22:31:48.369Z,13.40
2022-10-17T22:34:17.922Z,13.39
2022-10-17T22:36:48.023Z,13.39
2022-10-17T22:39:14.940Z,13.38
2022-10-17T22:41:43.740Z,13.37
2022-10-17T22:44:10.513Z,13.38
2022-10-17T22:46:37.346Z,13.39
2022-10-17T22:49:04.521Z,13.35
2022-10-17T22:51:32.226Z,13.30
2022-10-17T22:53:58.888Z,13.25
2022-10-17T22:56:25.787Z,13.18
2022-10-17T22:58:55.619Z,13.15
2022-10-17T23:01:25.681Z,13.16
2022-10-17T23:03:56.087Z,13.14
2022-10-17T23:06:23.093Z,13.15
2022-10-17T23:08:52.375Z,13.11
2022-10-17T23:11:20.876Z,13.09
2022-10-17T23:13:47.925Z,13.06
2022-10-17T23:16:14.598Z,13.10
2022-10-17T23:18:41.796Z,13.10
2022-10-17T23:21:08.588Z,13.09
2022-10-17T23:23:36.109Z,13.08
2022-10-17T23:26:12.078Z,13.15
2022-10-17T23:28:40.318Z,13.13
2022-10-17T23:31:19.458Z,13.16
2022-10-17T23:33:49.696Z,13.11
2022-10-17T23:36:20.472Z,13.15
2022-10-17T23:38:52.642Z,13.18
2022-10-17T23:41:21.806Z,13.20
2022-10-17T23:43:48.526Z,13.23
2022-10-17T23:46:15.227Z,13.22
2022-10-17T23:48:41.869Z,13.21
2022-10-17T23:51:10.302Z,13.22
2022-10-17T23:53:39.534Z,13.22
2022-10-17T23:56:09.222Z,13.21
2022-10-17T23:58:36.583Z,13.16
